createdAt,value
2019-03-01T00:01:24.170Z,13.57
2019-03-01T00:03:58.956Z,18.57
2019-03-01T00:06:42.939Z,12.60
2019-03-01T00:09:57.067Z,19.60
2019-03-01T00:13:03.658Z,15.37
2019-03-01T00:15:49.397Z,17.17
2019-03-01T00:19:19.034Z,11.73
2019-03-01T00:21:58.506Z,14.67
2019-03-01T00:24:54.391Z,18.00
2019-03-01T00:27:54.342Z,16.60
2019-03-01T00:30:50.056Z,19.90
2019-03-01T00:33:36.907Z,17.17
2019-03-01T00:36:45.445Z,19.53
2019-03-01T00:39:47.614Z,13.80
2019-03-01T00:42:49.397Z,17.33
2019-03-01T00:45:20.195Z,17.73
2019-03-01T00:47:50.851Z,14.30
2019-03-01T00:50:21.606Z,18.60
2019-03-01T00:52:52.303Z,15.50
2019-03-01T00:55:23.010Z,14.87
2019-03-01T00:57:53.888Z,12.50
2019-03-01T01:00:29.923Z,10.63
2019-03-01T01:03:00.658Z,15.03
2019-03-01T01:05:31.325Z,11.03
2019-03-01T01:08:02.003Z,15.93
2019-03-01T01:10:32.688Z,11.50
2019-03-01T01:13:03.466Z,11.77
2019-03-01T01:15:34.142Z,15.33
2019-03-01T01:18:04.827Z,17.03
2019-03-01T01:20:35.503Z,12.83
2019-03-01T01:23:06.208Z,12.43
2019-03-01T01:25:36.906Z,16.43
2019-03-01T01:28:07.551Z,15.97
2019-03-01T01:30:38.246Z,11.57
2019-03-01T01:33:09.004Z,10.97
2019-03-01T01:35:39.631Z,15.83
2019-03-01T01:38:10.399Z,15.27
2019-03-01T01:40:41.133Z,11.13
2019-03-01T01:43:11.828Z,11.73
2019-03-01T01:45:42.516Z,12.90
2019-03-01T01:48:13.202Z,11.53
2019-03-01T01:50:43.808Z,10.30
2019-03-01T01:53:14.535Z,8.93
2019-03-01T01:55:45.211Z,8.30
2019-03-01T01:58:15.947Z,14.07
2019-03-01T02:00:46.633Z,8.10
2019-03-01T02:03:17.373Z,11.33
2019-03-01T02:05:48.087Z,8.97
2019-03-01T02:08:18.882Z,9.73
2019-03-01T02:10:49.558Z,12.27
2019-03-01T02:13:20.205Z,9.20
2019-03-01T02:15:50.871Z,8.17
2019-03-01T02:18:21.626Z,12.20
2019-03-01T02:20:52.353Z,15.90
2019-03-01T02:23:23.080Z,10.07
2019-03-01T02:25:53.698Z,12.53
2019-03-01T02:28:24.420Z,11.50
2019-03-01T02:30:55.750Z,8.27
2019-03-01T02:33:26.424Z,10.83
2019-03-01T02:35:57.102Z,10.37
2019-03-01T02:38:27.801Z,7.57
2019-03-01T02:40:58.505Z,10.43
2019-03-01T02:43:29.253Z,11.27
2019-03-01T02:46:19.025Z,7.00
2019-03-01T02:48:49.716Z,8.67
2019-03-01T02:51:20.394Z,9.80
2019-03-01T02:53:51.169Z,11.70
2019-03-01T02:56:21.799Z,10.07
2019-03-01T02:58:52.531Z,12.83
2019-03-01T03:01:23.151Z,13.37
2019-03-01T03:03:53.847Z,12.50
2019-03-01T03:06:38.603Z,9.00
2019-03-01T03:09:10.065Z,10.77
2019-03-01T03:11:40.718Z,13.80
2019-03-01T03:14:11.399Z,13.53
2019-03-01T03:16:42.120Z,10.57
2019-03-01T03:19:12.837Z,11.23
2019-03-01T03:21:43.542Z,10.33
2019-03-01T03:24:14.235Z,10.90
2019-03-01T03:26:44.974Z,14.40
2019-03-01T03:29:15.646Z,12.07
2019-03-01T03:31:46.389Z,12.07
2019-03-01T03:34:17.094Z,11.07
2019-03-01T03:36:47.861Z,10.80
2019-03-01T03:39:18.627Z,11.80
2019-03-01T03:41:49.374Z,9.83
2019-03-01T03:44:20.100Z,10.20
2019-03-01T03:46:50.855Z,11.80
2019-03-01T03:49:21.583Z,9.77
2019-03-01T03:51:52.382Z,12.80
2019-03-01T03:54:23.083Z,10.73
2019-03-01T03:56:53.857Z,12.10
2019-03-01T03:59:24.574Z,11.63
2019-03-01T04:01:55.481Z,10.13
2019-03-01T04:04:26.200Z,12.43
2019-03-01T04:06:57.086Z,11.27
2019-03-01T04:09:27.852Z,12.03
2019-03-01T04:11:58.632Z,13.80
2019-03-01T04:14:29.415Z,9.60
2019-03-01T04:17:00.213Z,11.37
2019-03-01T04:19:30.967Z,10.13
2019-03-01T04:22:01.735Z,13.30
2019-03-01T04:24:32.479Z,15.30
2019-03-01T04:27:03.275Z,15.07
2019-03-01T04:29:34.022Z,10.97
2019-03-01T04:32:04.828Z,10.10
2019-03-01T04:34:35.554Z,10.43
2019-03-01T04:37:06.302Z,13.70
2019-03-01T04:39:37.047Z,11.90
2019-03-01T04:42:07.822Z,12.77
2019-03-01T04:44:38.592Z,13.17
2019-03-01T04:47:09.343Z,14.60
2019-03-01T04:49:40.121Z,12.90
2019-03-01T04:52:39.477Z,11.27
2019-03-01T04:55:15.481Z,11.10
2019-03-01T04:57:46.306Z,10.93
2019-03-01T05:00:18.874Z,12.57
2019-03-01T05:02:49.724Z,14.90
2019-03-01T05:05:20.538Z,11.50
2019-03-01T05:07:51.283Z,12.93
2019-03-01T05:10:21.999Z,12.47
2019-03-01T05:12:52.776Z,12.73
2019-03-01T05:15:23.866Z,17.63
2019-03-01T05:17:54.607Z,14.30
2019-03-01T05:20:25.344Z,12.43
2019-03-01T05:22:56.100Z,12.47
2019-03-01T05:25:26.817Z,11.07
2019-03-01T05:27:57.592Z,12.90
2019-03-01T05:30:28.338Z,13.07
2019-03-01T05:32:59.025Z,12.13
2019-03-01T05:35:29.727Z,14.03
2019-03-01T05:38:00.467Z,14.60
2019-03-01T05:40:31.183Z,13.90
2019-03-01T05:43:01.949Z,16.73
2019-03-01T05:45:32.678Z,13.63
2019-03-01T05:48:03.424Z,17.40
2019-03-01T05:50:34.153Z,15.60
2019-03-01T05:53:04.895Z,14.37
2019-03-01T05:55:35.641Z,15.80
2019-03-01T05:58:34.527Z,17.00
2019-03-01T06:01:12.457Z,17.37
2019-03-01T06:03:58.871Z,15.80
2019-03-01T06:07:13.963Z,16.63
2019-03-01T06:09:53.758Z,16.73
2019-03-01T06:13:01.562Z,18.47
2019-03-01T06:16:05.329Z,17.53
2019-03-01T06:19:32.547Z,14.80
2019-03-01T06:22:59.446Z,19.37
2019-03-01T06:26:01.520Z,16.30
2019-03-01T06:28:58.562Z,13.20
2019-03-01T06:31:44.851Z,19.83
2019-03-01T06:35:05.698Z,11.80
2019-03-01T06:38:16.335Z,16.57
2019-03-01T06:41:31.562Z,11.57
2019-03-01T06:44:35.989Z,20.07
2019-03-01T06:47:41.761Z,13.33
2019-03-01T06:50:23.310Z,13.27
2019-03-01T06:52:53.986Z,14.27
2019-03-01T06:55:44.461Z,15.27
2019-03-01T06:58:41.675Z,13.70
2019-03-01T07:01:15.566Z,15.83
2019-03-01T07:03:50.574Z,16.37
2019-03-01T07:06:21.281Z,15.27
2019-03-01T07:08:52.057Z,13.00
2019-03-01T07:11:22.803Z,12.80
2019-03-01T07:13:53.542Z,11.33
2019-03-01T07:16:24.335Z,15.10
2019-03-01T07:18:55.072Z,12.63
2019-03-01T07:21:25.798Z,13.00
2019-03-01T07:23:56.638Z,11.17
2019-03-01T07:26:27.401Z,14.17
2019-03-01T07:28:58.165Z,15.53
2019-03-01T07:31:28.953Z,13.83
2019-03-01T07:33:59.699Z,16.00
2019-03-01T07:36:30.395Z,11.57
2019-03-01T07:39:01.153Z,10.93
2019-03-01T07:41:31.907Z,11.27
2019-03-01T07:44:02.674Z,10.37
2019-03-01T07:46:33.360Z,9.80
2019-03-01T07:49:04.136Z,11.87
2019-03-01T07:51:35.974Z,7.07
2019-03-01T07:54:06.909Z,9.33
2019-03-01T07:56:39.951Z,7.23
2019-03-01T07:59:10.001Z,8.13
2019-03-01T08:01:40.762Z,12.47
2019-03-01T08:04:11.555Z,9.03
2019-03-01T08:06:42.260Z,11.83
2019-03-01T08:09:14.031Z,11.87
2019-03-01T08:11:44.763Z,9.17
2019-03-01T08:14:15.573Z,8.43
2019-03-01T08:16:46.366Z,9.00
2019-03-01T08:19:22.445Z,9.20
2019-03-01T08:21:49.921Z,7.73
2019-03-01T08:24:20.833Z,8.33
2019-03-01T08:26:51.553Z,8.73
2019-03-01T08:29:22.337Z,8.23
2019-03-01T08:31:55.743Z,9.43
2019-03-01T08:34:25.429Z,9.77
2019-03-01T08:36:56.185Z,9.33
2019-03-01T08:39:26.963Z,8.70
2019-03-01T08:42:01.231Z,10.37
2019-03-01T08:44:30.064Z,6.60
2019-03-01T08:47:00.831Z,7.17
2019-03-01T08:49:31.577Z,12.23
2019-03-01T08:52:02.462Z,10.90
2019-03-01T08:54:33.209Z,8.73
2019-03-01T08:57:03.967Z,9.13
2019-03-01T08:59:34.721Z,9.33
2019-03-01T09:02:05.521Z,9.67
2019-03-01T09:04:37.896Z,9.97
2019-03-01T09:07:08.571Z,13.93
2019-03-01T09:09:39.317Z,13.63
2019-03-01T09:12:10.104Z,12.53
2019-03-01T09:14:40.848Z,9.97
2019-03-01T09:17:11.586Z,15.90
2019-03-01T09:19:42.342Z,14.40
2019-03-01T09:22:13.132Z,14.73
2019-03-01T09:24:43.887Z,16.87
2019-03-01T09:27:14.660Z,13.63
2019-03-01T09:29:45.430Z,14.80
2019-03-01T09:32:16.182Z,18.47
2019-03-01T09:34:48.721Z,20.87
2019-03-01T09:37:19.485Z,24.43
2019-03-01T09:39:53.203Z,32.33
2019-03-01T09:42:22.527Z,32.80
2019-03-01T09:44:53.274Z,33.30
2019-03-01T09:47:24.023Z,34.37
2019-03-01T09:49:56.592Z,38.40
2019-03-01T09:52:27.152Z,34.57
2019-03-01T09:54:57.925Z,41.17
2019-03-01T09:57:28.665Z,35.90
2019-03-01T09:59:59.491Z,37.47
2019-03-01T10:02:30.298Z,39.13
2019-03-01T10:05:01.053Z,49.00
2019-03-01T10:07:31.790Z,51.13
2019-03-01T10:10:02.547Z,49.60
2019-03-01T10:12:33.293Z,52.60
2019-03-01T10:15:04.449Z,51.17
2019-03-01T10:17:35.244Z,52.60
2019-03-01T10:20:07.361Z,51.27
2019-03-01T10:22:38.176Z,51.47
2019-03-01T10:25:10.554Z,48.90
2019-03-01T10:27:41.360Z,52.63
2019-03-01T10:30:17.510Z,53.67
2019-03-01T10:32:48.474Z,58.17
2019-03-01T10:35:19.273Z,57.97
2019-03-01T10:37:49.987Z,61.43
2019-03-01T10:40:20.733Z,58.90
2019-03-01T10:42:51.412Z,65.10
2019-03-01T10:45:23.236Z,62.83
2019-03-01T10:47:53.861Z,74.23
2019-03-01T10:50:24.599Z,73.67
2019-03-01T10:52:55.304Z,73.43
2019-03-01T10:55:26.122Z,69.20
2019-03-01T10:57:56.837Z,70.03
2019-03-01T11:00:27.813Z,79.10
2019-03-01T11:02:58.633Z,79.27
2019-03-01T11:05:29.296Z,85.80
2019-03-01T11:07:59.984Z,75.23
2019-03-01T11:10:32.779Z,78.50
2019-03-01T11:13:03.486Z,75.83
2019-03-01T11:15:34.262Z,83.80
2019-03-01T11:18:05.109Z,86.20
2019-03-01T11:20:35.831Z,84.10
2019-03-01T11:23:06.401Z,90.57
2019-03-01T11:25:37.146Z,99.70
2019-03-01T11:28:07.844Z,90.50
2019-03-01T11:30:38.591Z,101.83
2019-03-01T11:33:09.297Z,105.70
2019-03-01T11:35:40.034Z,104.70
2019-03-01T11:38:10.729Z,97.97
2019-03-01T11:40:41.465Z,103.57
2019-03-01T11:43:12.282Z,109.10
2019-03-01T11:45:43.038Z,102.33
2019-03-01T11:48:13.663Z,99.27
2019-03-01T11:50:44.420Z,121.23
2019-03-01T11:53:15.137Z,116.47
2019-03-01T11:55:45.806Z,123.63
2019-03-01T11:58:16.510Z,124.93
2019-03-01T12:00:52.188Z,134.47
2019-03-01T12:03:19.606Z,141.73
2019-03-01T12:05:50.308Z,153.27
2019-03-01T12:08:21.006Z,166.17
2019-03-01T12:10:51.724Z,161.70
2019-03-01T12:13:22.449Z,171.70
2019-03-01T12:15:53.255Z,184.80
2019-03-01T12:18:23.961Z,180.77
2019-03-01T12:20:54.724Z,177.23
2019-03-01T12:23:25.435Z,153.53
2019-03-01T12:25:56.131Z,163.90
2019-03-01T12:28:26.906Z,154.30
2019-03-01T12:30:57.582Z,168.53
2019-03-01T12:33:28.339Z,161.43
2019-03-01T12:35:59.045Z,159.63
2019-03-01T12:38:29.791Z,146.87
2019-03-01T12:41:00.602Z,156.80
2019-03-01T12:43:31.337Z,156.77
2019-03-01T12:46:02.071Z,171.70
2019-03-01T12:48:32.809Z,166.87
2019-03-01T12:51:03.524Z,160.67
2019-03-01T12:53:34.270Z,160.20
2019-03-01T12:56:04.997Z,162.63
2019-03-01T12:58:35.752Z,144.70
2019-03-01T13:01:06.461Z,139.73
2019-03-01T13:03:37.186Z,139.73
2019-03-01T13:06:07.822Z,127.27
2019-03-01T13:08:38.468Z,133.53
2019-03-01T13:11:09.184Z,140.53
2019-03-01T13:13:43.594Z,123.20
2019-03-01T13:16:14.361Z,121.77
2019-03-01T13:18:47.570Z,109.90
2019-03-01T13:21:17.391Z,116.17
2019-03-01T13:23:48.118Z,107.47
2019-03-01T13:26:18.773Z,114.97
2019-03-01T13:28:50.381Z,116.87
2019-03-01T13:31:21.116Z,110.43
2019-03-01T13:33:51.833Z,109.67
2019-03-01T13:36:23.330Z,120.40
2019-03-01T13:38:54.096Z,115.03
2019-03-01T13:41:25.403Z,116.17
2019-03-01T13:43:56.171Z,122.60
2019-03-01T13:46:30.260Z,112.43
2019-03-01T13:48:59.213Z,122.80
2019-03-01T13:51:29.922Z,128.90
2019-03-01T13:54:00.644Z,121.07
2019-03-01T13:56:32.792Z,116.07
2019-03-01T13:59:03.984Z,114.27
2019-03-01T14:01:34.654Z,113.90
2019-03-01T14:04:05.400Z,122.90
2019-03-01T14:06:36.077Z,111.27
2019-03-01T14:09:12.984Z,119.97
2019-03-01T14:11:43.691Z,106.23
2019-03-01T14:14:14.449Z,121.50
2019-03-01T14:16:45.153Z,106.20
2019-03-01T14:19:15.900Z,101.80
2019-03-01T14:21:46.623Z,107.43
2019-03-01T14:24:17.363Z,107.60
2019-03-01T14:26:50.630Z,104.57
2019-03-01T14:29:20.445Z,118.33
2019-03-01T14:31:51.142Z,118.47
2019-03-01T14:34:21.909Z,127.30
2019-03-01T14:36:52.575Z,115.83
2019-03-01T14:39:23.290Z,99.70
2019-03-01T14:41:54.069Z,110.87
2019-03-01T14:44:24.884Z,110.53
2019-03-01T14:46:56.144Z,105.93
2019-03-01T14:49:27.686Z,101.73
2019-03-01T14:51:58.444Z,95.70
2019-03-01T14:54:29.219Z,93.83
2019-03-01T14:57:09.951Z,100.67
2019-03-01T15:00:12.937Z,95.20
2019-03-01T15:03:06.615Z,86.63
2019-03-01T15:05:38.671Z,109.43
2019-03-01T15:08:09.788Z,107.23
2019-03-01T15:10:40.484Z,103.57
2019-03-01T15:13:11.237Z,96.70
2019-03-01T15:15:41.980Z,95.70
2019-03-01T15:18:12.920Z,96.30
2019-03-01T15:20:43.718Z,106.60
2019-03-01T15:23:15.147Z,108.23
2019-03-01T15:25:48.513Z,109.47
2019-03-01T15:28:18.377Z,109.90
2019-03-01T15:30:49.193Z,105.53
2019-03-01T15:33:19.891Z,111.50
2019-03-01T15:35:50.666Z,113.20
2019-03-01T15:38:23.948Z,111.97
2019-03-01T15:40:53.763Z,123.97
2019-03-01T15:43:26.467Z,126.70
2019-03-01T15:45:56.781Z,116.83
2019-03-01T15:48:27.553Z,106.87
2019-03-01T15:50:59.003Z,114.87
2019-03-01T15:53:30.691Z,129.70
2019-03-01T15:56:02.180Z,103.90
2019-03-01T15:58:34.230Z,108.70
2019-03-01T16:01:10.906Z,100.83
2019-03-01T16:03:41.368Z,119.27
2019-03-01T16:06:17.258Z,94.27
2019-03-01T16:08:48.062Z,88.53
2019-03-01T16:11:16.959Z,88.13
2019-03-01T16:13:49.008Z,92.70
2019-03-01T16:16:20.229Z,80.70
2019-03-01T16:18:50.956Z,72.10
2019-03-01T16:21:21.746Z,83.20
2019-03-01T16:23:52.442Z,87.20
2019-03-01T16:26:29.558Z,79.27
2019-03-01T16:28:55.568Z,73.37
2019-03-01T16:31:28.989Z,78.93
2019-03-01T16:34:00.889Z,71.43
2019-03-01T16:36:35.312Z,72.73
2019-03-01T16:39:09.710Z,75.47
2019-03-01T16:41:42.934Z,78.87
2019-03-01T16:44:12.834Z,71.07
2019-03-01T16:46:43.554Z,67.20
2019-03-01T16:49:14.255Z,60.17
2019-03-01T16:51:44.972Z,64.77
2019-03-01T16:54:16.493Z,58.13
2019-03-01T16:56:47.330Z,57.47
2019-03-01T16:59:18.111Z,58.17
2019-03-01T17:01:48.873Z,52.30
2019-03-01T17:04:19.637Z,58.00
2019-03-01T17:06:50.424Z,50.20
2019-03-01T17:09:21.124Z,54.80
2019-03-01T17:11:51.912Z,52.60
2019-03-01T17:14:22.659Z,45.40
2019-03-01T17:16:56.419Z,47.77
2019-03-01T17:19:27.587Z,48.87
2019-03-01T17:21:58.412Z,52.67
2019-03-01T17:24:29.174Z,47.93
2019-03-01T17:27:02.086Z,51.43
2019-03-01T17:29:32.319Z,52.30
2019-03-01T17:32:03.042Z,51.90
2019-03-01T17:34:33.859Z,52.37
2019-03-01T17:37:04.586Z,58.73
2019-03-01T17:39:35.342Z,55.23
2019-03-01T17:42:06.077Z,62.50
2019-03-01T17:44:37.183Z,54.33
2019-03-01T17:47:09.727Z,39.87
2019-03-01T17:49:40.301Z,44.47
2019-03-01T17:52:11.086Z,42.27
2019-03-01T17:54:41.879Z,32.23
2019-03-01T17:57:12.621Z,35.57
2019-03-01T17:59:44.636Z,32.53
2019-03-01T18:02:15.848Z,50.27
2019-03-01T18:04:46.584Z,37.97
2019-03-01T18:07:17.308Z,33.13
2019-03-01T18:09:48.116Z,44.10
2019-03-01T18:12:20.563Z,38.70
2019-03-01T18:14:51.219Z,36.00
2019-03-01T18:17:22.015Z,39.40
2019-03-01T18:19:52.762Z,43.63
2019-03-01T18:22:26.593Z,31.73
2019-03-01T18:24:55.950Z,27.37
2019-03-01T18:27:26.691Z,36.07
2019-03-01T18:29:57.477Z,32.10
2019-03-01T18:32:28.204Z,28.57
2019-03-01T18:34:58.980Z,33.37
2019-03-01T18:37:29.695Z,30.07
2019-03-01T18:40:00.525Z,31.63
2019-03-01T18:42:34.284Z,32.37
2019-03-01T18:45:07.150Z,31.83
2019-03-01T18:47:36.081Z,34.97
2019-03-01T18:50:10.438Z,31.83
2019-03-01T18:52:41.205Z,36.77
2019-03-01T18:55:13.738Z,40.93
2019-03-01T18:57:44.397Z,44.70
2019-03-01T19:00:24.085Z,41.10
2019-03-01T19:02:54.812Z,52.00
2019-03-01T19:05:25.543Z,46.40
2019-03-01T19:07:56.337Z,46.30
2019-03-01T19:10:27.563Z,56.87
2019-03-01T19:12:59.346Z,62.50
2019-03-01T19:15:30.203Z,49.90
2019-03-01T19:18:01.000Z,53.53
2019-03-01T19:20:32.016Z,50.87
2019-03-01T19:23:02.795Z,52.30
2019-03-01T19:25:33.533Z,47.83
2019-03-01T19:28:04.306Z,51.00
2019-03-01T19:30:35.031Z,53.50
2019-03-01T19:33:05.787Z,54.80
2019-03-01T19:35:36.531Z,52.00
2019-03-01T19:38:07.339Z,50.47
2019-03-01T19:40:38.047Z,49.80
2019-03-01T19:43:10.242Z,46.77
2019-03-01T19:45:41.572Z,51.87
2019-03-01T19:48:12.385Z,55.73
2019-03-01T19:50:43.626Z,57.07
2019-03-01T19:53:14.437Z,58.07
2019-03-01T19:55:47.237Z,64.43
2019-03-01T19:58:17.560Z,52.77
2019-03-01T20:00:48.268Z,54.97
2019-03-01T20:03:19.103Z,48.57
2019-03-01T20:05:49.880Z,54.03
2019-03-01T20:08:20.678Z,54.93
2019-03-01T20:10:51.782Z,56.07
2019-03-01T20:13:22.646Z,54.73
2019-03-01T20:15:53.424Z,59.53
2019-03-01T20:18:24.194Z,55.80
2019-03-01T20:20:54.966Z,58.97
2019-03-01T20:23:26.495Z,64.20
2019-03-01T20:25:57.389Z,59.87
2019-03-01T20:28:28.145Z,60.43
2019-03-01T20:31:01.633Z,61.27
2019-03-01T20:33:31.318Z,63.77
2019-03-01T20:36:02.004Z,68.00
2019-03-01T20:38:32.790Z,68.53
2019-03-01T20:41:03.932Z,62.83
2019-03-01T20:43:37.946Z,69.23
2019-03-01T20:46:07.325Z,72.27
2019-03-01T20:48:38.797Z,77.53
2019-03-01T20:51:09.532Z,72.23
2019-03-01T20:53:40.268Z,73.63
2019-03-01T20:56:13.864Z,78.33
2019-03-01T20:58:43.451Z,77.10
2019-03-01T21:01:14.501Z,76.27
2019-03-01T21:03:45.363Z,70.50
2019-03-01T21:06:16.139Z,77.20
2019-03-01T21:08:46.906Z,69.03
2019-03-01T21:11:17.702Z,67.43
2019-03-01T21:13:49.078Z,74.50
2019-03-01T21:16:20.555Z,73.17
2019-03-01T21:18:51.301Z,75.93
2019-03-01T21:21:22.050Z,69.60
2019-03-01T21:23:52.814Z,67.40
2019-03-01T21:26:24.137Z,65.73
2019-03-01T21:28:54.896Z,66.17
2019-03-01T21:31:25.637Z,73.93
2019-03-01T21:33:59.338Z,68.00
2019-03-01T21:36:28.775Z,77.80
2019-03-01T21:38:59.491Z,71.47
2019-03-01T21:41:30.364Z,66.20
2019-03-01T21:44:01.139Z,72.33
2019-03-01T21:46:34.105Z,69.83
2019-03-01T21:49:04.219Z,73.33
2019-03-01T21:51:34.980Z,67.33
2019-03-01T21:54:05.821Z,79.83
2019-03-01T21:56:39.578Z,65.40
2019-03-01T21:59:08.859Z,65.17
2019-03-01T22:01:41.416Z,67.27
2019-03-01T22:04:11.925Z,73.17
2019-03-01T22:06:42.674Z,66.43
2019-03-01T22:09:13.661Z,79.60
2019-03-01T22:11:45.758Z,66.50
2019-03-01T22:14:17.133Z,70.10
2019-03-01T22:16:47.917Z,66.63
2019-03-01T22:19:18.592Z,63.17
2019-03-01T22:21:49.251Z,65.70
2019-03-01T22:24:19.947Z,70.47
2019-03-01T22:26:50.825Z,74.77
2019-03-01T22:29:21.571Z,70.30
2019-03-01T22:31:52.285Z,67.70
2019-03-01T22:34:23.011Z,72.07
2019-03-01T22:36:53.847Z,73.37
2019-03-01T22:39:24.659Z,67.97
2019-03-01T22:41:55.380Z,65.23
2019-03-01T22:44:26.176Z,65.77
2019-03-01T22:46:57.908Z,69.63
2019-03-01T22:49:31.798Z,64.60
2019-03-01T22:52:01.626Z,60.67
2019-03-01T22:54:32.262Z,61.63
2019-03-01T22:57:02.993Z,60.33
2019-03-01T22:59:33.717Z,61.70
2019-03-01T23:02:08.109Z,62.90
2019-03-01T23:04:39.108Z,69.37
2019-03-01T23:07:09.844Z,67.10
2019-03-01T23:09:42.628Z,62.13
2019-03-01T23:12:14.759Z,63.27
2019-03-01T23:14:45.223Z,62.10
2019-03-01T23:17:16.160Z,59.60
2019-03-01T23:19:47.761Z,63.67
2019-03-01T23:22:19.193Z,63.73
2019-03-01T23:24:49.929Z,57.83
2019-03-01T23:27:20.585Z,61.20
2019-03-01T23:29:54.291Z,63.33
2019-03-01T23:32:23.519Z,62.90
2019-03-01T23:34:54.225Z,61.80
2019-03-01T23:37:24.988Z,59.03
2019-03-01T23:39:57.032Z,58.60
2019-03-01T23:42:28.076Z,59.53
2019-03-01T23:44:59.019Z,57.83
2019-03-01T23:47:29.937Z,56.70
2019-03-01T23:50:00.784Z,63.77
2019-03-01T23:52:31.631Z,58.97
2019-03-01T23:55:02.360Z,58.63
2019-03-01T23:57:33.401Z,59.73
